sensor_id;sensor_type;location;lat;lon;timestamp;pressure;altitude;pressure_sealevel;temperature;humidity
73821;BME280;62150;43.582;1.456;2023-11-19T04:23:14;100823.78;;;9.60;100.00
73821;BME280;62150;43.582;1.456;2023-11-19T04:25:42;100812.31;;;9.73;100.00
73821;BME280;62150;43.582;1.456;2023-11-19T04:28:09;100803.34;;;9.89;100.00
73821;BME280;62150;43.582;1.456;2023-11-19T04:30:37;100800.06;;;9.84;100.00
73821;BME280;62150;43.582;1.456;2023-11-19T04:33:05;100798.06;;;9.95;100.00
73821;BME280;62150;43.582;1.456;2023-11-19T04:35:32;100788.84;;;9.88;100.00
73821;BME280;62150;43.582;1.456;2023-11-19T04:37:59;100790.22;;;9.69;100.00
73821;BME280;62150;43.582;1.456;2023-11-19T04:40:28;100792.22;;;9.90;100.00
73821;BME280;62150;43.582;1.456;2023-11-19T04:42:56;100789.38;;;9.68;100.00
73821;BME280;62150;43.582;1.456;2023-11-19T04:45:23;100787.88;;;9.92;100.00
73821;BME280;62150;43.582;1.456;2023-11-19T04:47:51;100791.66;;;9.78;100.00
73821;BME280;62150;43.582;1.456;2023-11-19T04:50:18;100793.47;;;9.74;100.00
73821;BME280;62150;43.582;1.456;2023-11-19T04:52:46;100786.38;;;9.84;100.00
73821;BME280;62150;43.582;1.456;2023-11-19T04:55:13;100790.50;;;9.57;100.00
73821;BME280;62150;43.582;1.456;2023-11-19T04:57:42;100792.03;;;9.64;100.00
73821;BME280;62150;43.582;1.456;2023-11-19T05:00:11;100800.34;;;9.72;100.00
73821;BME280;62150;43.582;1.456;2023-11-19T05:02:39;100817.28;;;9.79;100.00
73821;BME280;62150;43.582;1.456;2023-11-19T05:05:07;100810.41;;;9.81;100.00
73821;BME280;62150;43.582;1.456;2023-11-19T05:07:38;100812.47;;;10.01;100.00
73821;BME280;62150;43.582;1.456;2023-11-19T05:10:06;100811.25;;;10.14;100.00
73821;BME280;62150;43.582;1.456;2023-11-19T05:12:34;100797.91;;;10.01;100.00
73821;BME280;62150;43.582;1.456;2023-11-19T05:15:04;100800.00;;;9.87;100.00
73821;BME280;62150;43.582;1.456;2023-11-19T05:17:40;100809.41;;;9.87;100.00
73821;BME280;62150;43.582;1.456;2023-11-19T05:20:08;100811.28;;;9.80;100.00
73821;BME280;62150;43.582;1.456;2023-11-19T05:22:39;100803.41;;;9.88;100.00
73821;BME280;62150;43.582;1.456;2023-11-19T05:25:07;100805.34;;;9.78;100.00
73821;BME280;62150;43.582;1.456;2023-11-19T05:27:37;100812.06;;;9.84;100.00
73821;BME280;62150;43.582;1.456;2023-11-19T05:30:07;100809.47;;;9.84;100.00
73821;BME280;62150;43.582;1.456;2023-11-19T05:32:41;100809.94;;;9.99;100.00
73821;BME280;62150;43.582;1.456;2023-11-19T05:35:10;100822.81;;;9.98;100.00
73821;BME280;62150;43.582;1.456;2023-11-19T05:37:38;100816.84;;;9.97;100.00
73821;BME280;62150;43.582;1.456;2023-11-19T05:40:06;100807.75;;;9.84;100.00
73821;BME280;62150;43.582;1.456;2023-11-19T05:42:40;100811.13;;;9.86;100.00
73821;BME280;62150;43.582;1.456;2023-11-19T05:45:11;100812.41;;;9.70;100.00
73821;BME280;62150;43.582;1.456;2023-11-19T05:47:38;100802.69;;;9.81;100.00
73821;BME280;62150;43.582;1.456;2023-11-19T05:50:06;100793.47;;;9.74;100.00
73821;BME280;62150;43.582;1.456;2023-11-19T05:52:34;100801.47;;;9.63;100.00
73821;BME280;62150;43.582;1.456;2023-11-19T05:55:01;100808.41;;;9.58;100.00
73821;BME280;62150;43.582;1.456;2023-11-19T05:57:30;100810.94;;;9.60;100.00
73821;BME280;62150;43.582;1.456;2023-11-19T06:00:00;100808.56;;;9.86;100.00
73821;BME280;62150;43.582;1.456;2023-11-19T06:02:31;100815.53;;;9.81;100.00
73821;BME280;62150;43.582;1.456;2023-11-19T06:04:59;100808.72;;;9.80;100.00
73821;BME280;62150;43.582;1.456;2023-11-19T06:07:27;100812.63;;;9.95;100.00
73821;BME280;62150;43.582;1.456;2023-11-19T06:09:55;100817.09;;;9.87;100.00
73821;BME280;62150;43.582;1.456;2023-11-19T06:12:22;100806.81;;;9.88;100.00
73821;BME280;62150;43.582;1.456;2023-11-19T06:14:50;100818.56;;;9.97;100.00
73821;BME280;62150;43.582;1.456;2023-11-19T06:17:17;100817.72;;;9.96;100.00
73821;BME280;62150;43.582;1.456;2023-11-19T06:19:46;100813.78;;;9.83;100.00
73821;BME280;62150;43.582;1.456;2023-11-19T06:22:14;100819.63;;;9.88;100.00
73821;BME280;62150;43.582;1.456;2023-11-19T06:24:42;100833.38;;;9.86;100.00
73821;BME280;62150;43.582;1.456;2023-11-19T06:27:10;100839.66;;;9.74;100.00
73821;BME280;62150;43.582;1.456;2023-11-19T06:29:37;100836.13;;;9.78;100.00
73821;BME280;62150;43.582;1.456;2023-11-19T06:32:07;100842.66;;;9.91;100.00
73821;BME280;62150;43.582;1.456;2023-11-19T06:34:35;100848.91;;;9.81;100.00
73821;BME280;62150;43.582;1.456;2023-11-19T06:37:04;100845.31;;;9.88;100.00
73821;BME280;62150;43.582;1.456;2023-11-19T06:39:31;100844.31;;;9.94;100.00
73821;BME280;62150;43.582;1.456;2023-11-19T06:42:01;100853.69;;;9.95;100.00
73821;BME280;62150;43.582;1.456;2023-11-19T06:44:29;100842.44;;;10.00;100.00
73821;BME280;62150;43.582;1.456;2023-11-19T06:46:56;100848.53;;;9.96;100.00
73821;BME280;62150;43.582;1.456;2023-11-19T06:49:24;100854.34;;;10.03;100.00
73821;BME280;62150;43.582;1.456;2023-11-19T06:51:51;100861.41;;;9.95;100.00
73821;BME280;62150;43.582;1.456;2023-11-19T06:54:20;100859.72;;;9.94;100.00
73821;BME280;62150;43.582;1.456;2023-11-19T06:56:48;100863.16;;;9.93;100.00
73821;BME280;62150;43.582;1.456;2023-11-19T06:59:16;100868.19;;;9.97;100.00
73821;BME280;62150;43.582;1.456;2023-11-19T07:01:43;100868.47;;;9.85;100.00
73821;BME280;62150;43.582;1.456;2023-11-19T07:04:11;100870.38;;;9.77;100.00
73821;BME280;62150;43.582;1.456;2023-11-19T07:06:39;100866.72;;;9.87;100.00
73821;BME280;62150;43.582;1.456;2023-11-19T07:09:08;100861.66;;;9.84;100.00
73821;BME280;62150;43.582;1.456;2023-11-19T07:11:41;100872.63;;;9.91;100.00
73821;BME280;62150;43.582;1.456;2023-11-19T07:14:11;100865.69;;;9.94;100.00
73821;BME280;62150;43.582;1.456;2023-11-19T07:16:39;100869.13;;;9.93;100.00
73821;BME280;62150;43.582;1.456;2023-11-19T07:19:07;100875.84;;;9.99;100.00
73821;BME280;62150;43.582;1.456;2023-11-19T07:21:34;100880.06;;;10.01;100.00
73821;BME280;62150;43.582;1.456;2023-11-19T07:24:06;100882.78;;;9.95;100.00
73821;BME280;62150;43.582;1.456;2023-11-19T07:26:33;100878.44;;;9.97;100.00
73821;BME280;62150;43.582;1.456;2023-11-19T07:29:02;100881.00;;;9.97;100.00
73821;BME280;62150;43.582;1.456;2023-11-19T07:31:33;100879.22;;;10.01;100.00
73821;BME280;62150;43.582;1.456;2023-11-19T07:34:01;100880.69;;;10.09;100.00
73821;BME280;62150;43.582;1.456;2023-11-19T07:36:28;100880.91;;;10.02;100.00
73821;BME280;62150;43.582;1.456;2023-11-19T07:38:57;100886.78;;;10.05;100.00
73821;BME280;62150;43.582;1.456;2023-11-19T07:41:25;100877.19;;;10.12;100.00
73821;BME280;62150;43.582;1.456;2023-11-19T07:43:52;100876.44;;;10.08;100.00
73821;BME280;62150;43.582;1.456;2023-11-19T07:46:22;100891.31;;;9.96;100.00
73821;BME280;62150;43.582;1.456;2023-11-19T07:48:49;100900.75;;;9.95;100.00
73821;BME280;62150;43.582;1.456;2023-11-19T07:51:17;100900.38;;;10.09;100.00
73821;BME280;62150;43.582;1.456;2023-11-19T07:53:45;100901.22;;;10.09;100.00
73821;BME280;62150;43.582;1.456;2023-11-19T07:56:12;100896.91;;;10.12;100.00
73821;BME280;62150;43.582;1.456;2023-11-19T07:58:39;100891.63;;;10.18;100.00
73821;BME280;62150;43.582;1.456;2023-11-19T08:01:08;100889.94;;;10.17;100.00
73821;BME280;62150;43.582;1.456;2023-11-19T08:03:37;100898.44;;;10.20;100.00
73821;BME280;62150;43.582;1.456;2023-11-19T08:06:09;100891.34;;;10.30;100.00
73821;BME280;62150;43.582;1.456;2023-11-19T08:08:37;100893.19;;;10.25;100.00
73821;BME280;62150;43.582;1.456;2023-11-19T08:11:05;100903.47;;;10.25;100.00
73821;BME280;62150;43.582;1.456;2023-11-19T08:13:33;100905.78;;;10.34;100.00
73821;BME280;62150;43.582;1.456;2023-11-19T08:16:00;100899.69;;;10.38;100.00
73821;BME280;62150;43.582;1.456;2023-11-19T08:18:28;100908.09;;;10.43;100.00
73821;BME280;62150;43.582;1.456;2023-11-19T08:20:57;100903.69;;;10.48;100.00
73821;BME280;62150;43.582;1.456;2023-11-19T08:23:26;100907.91;;;10.51;100.00
73821;BME280;62150;43.582;1.456;2023-11-19T08:25:54;100914.34;;;10.34;100.00
73821;BME280;62150;43.582;1.456;2023-11-19T08:28:22;100921.81;;;10.42;100.00
73821;BME280;62150;43.582;1.456;2023-11-19T08:30:49;100916.50;;;10.50;100.00
73821;BME280;62150;43.582;1.456;2023-11-19T08:33:17;100920.34;;;10.66;100.00
73821;BME280;62150;43.582;1.456;2023-11-19T08:35:44;100921.81;;;10.74;100.00
73821;BME280;62150;43.582;1.456;2023-11-19T08:38:14;100921.78;;;10.76;100.00
73821;BME280;62150;43.582;1.456;2023-11-19T08:40:42;100927.56;;;10.84;100.00
73821;BME280;62150;43.582;1.456;2023-11-19T08:43:09;100926.59;;;10.88;100.00
73821;BME280;62150;43.582;1.456;2023-11-19T08:45:37;100926.59;;;10.88;100.00
73821;BME280;62150;43.582;1.456;2023-11-19T08:48:05;100924.66;;;10.96;100.00
73821;BME280;62150;43.582;1.456;2023-11-19T08:50:34;100931.47;;;10.97;100.00
73821;BME280;62150;43.582;1.456;2023-11-19T08:53:04;100923.72;;;10.99;100.00
73821;BME280;62150;43.582;1.456;2023-11-19T08:55:40;100928.75;;;11.03;100.00
73821;BME280;62150;43.582;1.456;2023-11-19T08:58:08;100931.97;;;11.10;100.00
73821;BME280;62150;43.582;1.456;2023-11-19T09:00:38;100924.97;;;11.15;100.00
73821;BME280;62150;43.582;1.456;2023-11-19T09:03:06;100931.81;;;11.15;100.00
73821;BME280;62150;43.582;1.456;2023-11-19T09:05:38;100930.00;;;11.18;100.00
73821;BME280;62150;43.582;1.456;2023-11-19T09:08:06;100932.31;;;11.27;100.00
73821;BME280;62150;43.582;1.456;2023-11-19T09:10:34;100928.78;;;11.31;100.00
73821;BME280;62150;43.582;1.456;2023-11-19T09:13:03;100932.31;;;11.27;100.00
73821;BME280;62150;43.582;1.456;2023-11-19T09:15:31;100942.00;;;11.19;100.00
73821;BME280;62150;43.582;1.456;2023-11-19T09:18:01;100941.59;;;11.33;100.00
73821;BME280;62150;43.582;1.456;2023-11-19T09:20:30;100944.97;;;11.35;100.00
73821;BME280;62150;43.582;1.456;2023-11-19T09:23:03;100935.34;;;11.41;100.00
73821;BME280;62150;43.582;1.456;2023-11-19T09:25:32;100937.34;;;11.60;100.00
73821;BME280;62150;43.582;1.456;2023-11-19T09:28:00;100930.84;;;11.48;100.00
73821;BME280;62150;43.582;1.456;2023-11-19T09:30:29;100927.44;;;11.75;100.00
73821;BME280;62150;43.582;1.456;2023-11-19T09:32:56;100928.28;;;11.76;100.00
73821;BME280;62150;43.582;1.456;2023-11-19T09:35:24;100934.19;;;11.80;100.00
73821;BME280;62150;43.582;1.456;2023-11-19T09:37:51;100931.19;;;11.93;100.00
73821;BME280;62150;43.582;1.456;2023-11-19T09:40:19;100938.91;;;11.93;100.00
73821;BME280;62150;43.582;1.456;2023-11-19T09:42:46;100933.19;;;12.12;100.00
73821;BME280;62150;43.582;1.456;2023-11-19T09:45:16;100933.94;;;12.14;100.00
73821;BME280;62150;43.582;1.456;2023-11-19T09:47:46;100933.59;;;12.24;100.00
73821;BME280;62150;43.582;1.456;2023-11-19T09:50:17;100935.22;;;12.27;100.00
73821;BME280;62150;43.582;1.456;2023-11-19T09:52:45;100931.03;;;12.49;100.00
73821;BME280;62150;43.582;1.456;2023-11-19T09:55:12;100927.88;;;12.41;100.00
73821;BME280;62150;43.582;1.456;2023-11-19T09:57:40;100928.44;;;12.49;100.00
73821;BME280;62150;43.582;1.456;2023-11-19T10:00:11;100932.19;;;12.65;100.00
73821;BME280;62150;43.582;1.456;2023-11-19T10:02:41;100928.00;;;12.86;100.00
73821;BME280;62150;43.582;1.456;2023-11-19T10:05:13;100921.66;;;12.71;100.00
73821;BME280;62150;43.582;1.456;2023-11-19T10:07:41;100921.72;;;12.93;100.00
73821;BME280;62150;43.582;1.456;2023-11-19T10:10:10;100921.16;;;12.85;100.00
73821;BME280;62150;43.582;1.456;2023-11-19T10:12:44;100923.47;;;12.93;100.00
73821;BME280;62150;43.582;1.456;2023-11-19T10:15:19;100913.19;;;12.91;100.00
73821;BME280;62150;43.582;1.456;2023-11-19T10:17:48;100908.75;;;13.20;100.00
73821;BME280;62150;43.582;1.456;2023-11-19T10:20:17;100905.66;;;13.33;100.00
73821;BME280;62150;43.582;1.456;2023-11-19T10:22:44;100910.28;;;13.47;100.00
73821;BME280;62150;43.582;1.456;2023-11-19T10:25:23;100903.78;;;13.59;100.00
73821;BME280;62150;43.582;1.456;2023-11-19T10:27:51;100900.03;;;13.46;100.00
73821;BME280;62150;43.582;1.456;2023-11-19T10:30:20;100900.47;;;13.55;100.00
73821;BME280;62150;43.582;1.456;2023-11-19T10:33:03;100891.69;;;14.03;100.00
73821;BME280;62150;43.582;1.456;2023-11-19T10:35:33;100894.31;;;14.01;100.00
73821;BME280;62150;43.582;1.456;2023-11-19T10:38:02;100889.09;;;14.03;100.00
73821;BME280;62150;43.582;1.456;2023-11-19T10:40:40;100885.34;;;14.10;100.00
73821;BME280;62150;43.582;1.456;2023-11-19T10:43:12;100879.72;;;14.21;100.00
73821;BME280;62150;43.582;1.456;2023-11-19T10:45:40;100867.72;;;14.20;100.00
73821;BME280;62150;43.582;1.456;2023-11-19T10:48:07;100871.50;;;14.31;100.00
73821;BME280;62150;43.582;1.456;2023-11-19T10:50:39;100868.28;;;14.26;100.00
73821;BME280;62150;43.582;1.456;2023-11-19T10:53:08;100869.66;;;14.55;100.00
73821;BME280;62150;43.582;1.456;2023-11-19T10:55:37;100864.31;;;14.58;100.00
73821;BME280;62150;43.582;1.456;2023-11-19T10:58:06;100853.91;;;14.60;100.00
73821;BME280;62150;43.582;1.456;2023-11-19T11:00:38;100856.66;;;14.94;100.00
73821;BME280;62150;43.582;1.456;2023-11-19T11:03:11;100852.34;;;14.95;100.00
73821;BME280;62150;43.582;1.456;2023-11-19T11:05:43;100850.16;;;15.04;100.00
73821;BME280;62150;43.582;1.456;2023-11-19T11:08:14;100849.19;;;15.07;100.00
73821;BME280;62150;43.582;1.456;2023-11-19T11:10:44;100842.47;;;15.03;100.00
73821;BME280;62150;43.582;1.456;2023-11-19T11:13:14;100839.47;;;15.12;100.00
73821;BME280;62150;43.582;1.456;2023-11-19T11:15:42;100837.16;;;15.06;100.00
73821;BME280;62150;43.582;1.456;2023-11-19T11:18:10;100833.25;;;15.16;100.00
73821;BME280;62150;43.582;1.456;2023-11-19T11:20:37;100823.69;;;15.35;100.00
73821;BME280;62150;43.582;1.456;2023-11-19T11:23:37;100816.75;;;15.36;100.00
73821;BME280;62150;43.582;1.456;2023-11-19T11:26:35;100824.44;;;15.20;100.00
73821;BME280;62150;43.582;1.456;2023-11-19T11:29:14;100821.94;;;15.36;100.00
73821;BME280;62150;43.582;1.456;2023-11-19T11:31:48;100813.00;;;15.60;100.00
73821;BME280;62150;43.582;1.456;2023-11-19T11:34:34;100813.22;;;15.56;100.00
73821;BME280;62150;43.582;1.456;2023-11-19T11:37:11;100803.66;;;15.75;100.00
73821;BME280;62150;43.582;1.456;2023-11-19T11:39:44;100807.91;;;15.93;100.00
73821;BME280;62150;43.582;1.456;2023-11-19T11:42:34;100797.06;;;16.02;100.00
73821;BME280;62150;43.582;1.456;2023-11-19T11:45:04;100794.75;;;16.14;100.00
73821;BME280;62150;43.582;1.456;2023-11-19T11:48:11;100786.22;;;16.45;100.00
73821;BME280;62150;43.582;1.456;2023-11-19T11:50:56;100783.78;;;16.26;100.00
73821;BME280;62150;43.582;1.456;2023-11-19T11:53:25;100786.28;;;16.43;100.00
73821;BME280;62150;43.582;1.456;2023-11-19T11:55:56;100783.72;;;16.59;100.00
73821;BME280;62150;43.582;1.456;2023-11-19T11:58:32;100778.28;;;16.48;100.00
73821;BME280;62150;43.582;1.456;2023-11-19T12:01:03;100768.41;;;16.05;100.00
73821;BME280;62150;43.582;1.456;2023-11-19T12:03:33;100775.59;;;16.49;100.00
73821;BME280;62150;43.582;1.456;2023-11-19T12:06:01;100760.91;;;16.32;100.00
73821;BME280;62150;43.582;1.456;2023-11-19T12:08:29;100763.16;;;16.71;100.00
73821;BME280;62150;43.582;1.456;2023-11-19T12:11:00;100753.81;;;16.85;100.00
73821;BME280;62150;43.582;1.456;2023-11-19T12:13:53;100757.78;;;17.06;100.00
73821;BME280;62150;43.582;1.456;2023-11-19T12:16:24;100747.03;;;16.98;100.00
73821;BME280;62150;43.582;1.456;2023-11-19T12:18:53;100746.34;;;16.79;100.00
73821;BME280;62150;43.582;1.456;2023-11-19T12:21:28;100747.31;;;17.07;100.00
73821;BME280;62150;43.582;1.456;2023-11-19T12:23:58;100741.00;;;16.97;100.00
73821;BME280;62150;43.582;1.456;2023-11-19T12:26:38;100738.72;;;16.91;100.00
73821;BME280;62150;43.582;1.456;2023-11-19T12:29:06;100742.03;;;17.09;100.00
73821;BME280;62150;43.582;1.456;2023-11-19T12:31:34;100733.22;;;17.27;100.00
73821;BME280;62150;43.582;1.456;2023-11-19T12:34:08;100730.66;;;17.41;100.00
73821;BME280;62150;43.582;1.456;2023-11-19T12:36:39;100732.22;;;17.44;100.00
73821;BME280;62150;43.582;1.456;2023-11-19T12:39:07;100718.63;;;17.55;100.00
73821;BME280;62150;43.582;1.456;2023-11-19T12:41:52;100712.75;;;17.67;100.00
73821;BME280;62150;43.582;1.456;2023-11-19T12:44:20;100715.84;;;17.58;100.00
73821;BME280;62150;43.582;1.456;2023-11-19T12:47:00;100716.53;;;17.75;100.00
73821;BME280;62150;43.582;1.456;2023-11-19T12:49:28;100712.56;;;17.84;100.00
73821;BME280;62150;43.582;1.456;2023-11-19T12:51:55;100716.09;;;17.83;100.00
73821;BME280;62150;43.582;1.456;2023-11-19T12:54:33;100714.41;;;17.82;100.00
73821;BME280;62150;43.582;1.456;2023-11-19T12:57:02;100712.00;;;17.79;100.00
73821;BME280;62150;43.582;1.456;2023-11-19T12:59:31;100709.56;;;18.04;100.00
73821;BME280;62150;43.582;1.456;2023-11-19T13:01:58;100711.84;;;17.96;100.00
73821;BME280;62150;43.582;1.456;2023-11-19T13:04:28;100701.88;;;18.03;100.00
73821;BME280;62150;43.582;1.456;2023-11-19T13:06:57;100699.16;;;18.33;100.00
73821;BME280;62150;43.582;1.456;2023-11-19T13:09:26;100692.69;;;17.83;100.00
73821;BME280;62150;43.582;1.456;2023-11-19T13:11:55;100690.44;;;18.20;100.00
73821;BME280;62150;43.582;1.456;2023-11-19T13:14:37;100687.28;;;18.29;100.00
73821;BME280;62150;43.582;1.456;2023-11-19T13:17:08;100688.75;;;18.33;100.00
73821;BME280;62150;43.582;1.456;2023-11-19T13:19:38;100680.03;;;18.20;100.00
73821;BME280;62150;43.582;1.456;2023-11-19T13:22:08;100682.09;;;18.56;100.00
73821;BME280;62150;43.582;1.456;2023-11-19T13:24:37;100675.25;;;18.40;100.00
73821;BME280;62150;43.582;1.456;2023-11-19T13:27:07;100672.19;;;18.62;100.00
73821;BME280;62150;43.582;1.456;2023-11-19T13:29:37;100671.16;;;18.78;100.00
73821;BME280;62150;43.582;1.456;2023-11-19T13:32:04;100669.41;;;18.78;100.00
73821;BME280;62150;43.582;1.456;2023-11-19T13:34:38;100667.09;;;19.13;100.00
73821;BME280;62150;43.582;1.456;2023-11-19T13:37:06;100661.00;;;18.87;100.00
73821;BME280;62150;43.582;1.456;2023-11-19T13:39:33;100659.56;;;18.96;100.00
73821;BME280;62150;43.582;1.456;2023-11-19T13:42:00;100656.47;;;19.16;100.00
73821;BME280;62150;43.582;1.456;2023-11-19T13:44:28;100661.59;;;19.18;100.00
73821;BME280;62150;43.582;1.456;2023-11-19T13:46:57;100660.94;;;19.14;100.00
73821;BME280;62150;43.582;1.456;2023-11-19T13:49:24;100653.03;;;19.03;100.00
73821;BME280;62150;43.582;1.456;2023-11-19T13:51:52;100661.22;;;19.36;100.00
73821;BME280;62150;43.582;1.456;2023-11-19T13:54:20;100658.59;;;19.49;100.00
73821;BME280;62150;43.582;1.456;2023-11-19T13:56:48;100658.41;;;19.39;100.00
73821;BME280;62150;43.582;1.456;2023-11-19T13:59:15;100660.22;;;19.12;100.00
73821;BME280;62150;43.582;1.456;2023-11-19T14:01:43;100656.97;;;18.96;100.00
73821;BME280;62150;43.582;1.456;2023-11-19T14:04:12;100659.09;;;19.41;100.00
73821;BME280;62150;43.582;1.456;2023-11-19T14:06:39;100651.53;;;19.51;100.00
73821;BME280;62150;43.582;1.456;2023-11-19T14:09:07;100660.56;;;19.46;100.00
73821;BME280;62150;43.582;1.456;2023-11-19T14:11:36;100650.50;;;19.54;100.00
73821;BME280;62150;43.582;1.456;2023-11-19T14:14:03;100649.19;;;19.47;100.00
73821;BME280;62150;43.582;1.456;2023-11-19T14:16:31;100649.09;;;19.48;100.00
73821;BME280;62150;43.582;1.456;2023-11-19T14:19:00;100653.31;;;19.51;100.00
73821;BME280;62150;43.582;1.456;2023-11-19T14:21:29;100655.72;;;19.54;100.00
73821;BME280;62150;43.582;1.456;2023-11-19T14:23:56;100657.69;;;19.63;100.00
73821;BME280;62150;43.582;1.456;2023-11-19T14:26:25;100654.56;;;19.58;100.00
73821;BME280;62150;43.582;1.456;2023-11-19T14:28:52;100658.13;;;19.69;100.00
73821;BME280;62150;43.582;1.456;2023-11-19T14:31:20;100661.19;;;19.87;100.00
73821;BME280;62150;43.582;1.456;2023-11-19T14:33:47;100658.19;;;19.81;100.00
73821;BME280;62150;43.582;1.456;2023-11-19T14:36:15;100648.69;;;19.92;100.00
73821;BME280;62150;43.582;1.456;2023-11-19T14:38:44;100649.13;;;19.73;100.00
73821;BME280;62150;43.582;1.456;2023-11-19T14:41:12;100644.63;;;19.88;100.00
73821;BME280;62150;43.582;1.456;2023-11-19T14:43:39;100640.75;;;19.81;100.00
73821;BME280;62150;43.582;1.456;2023-11-19T14:46:07;100644.31;;;19.80;100.00
73821;BME280;62150;43.582;1.456;2023-11-19T14:48:35;100643.63;;;20.15;100.00
73821;BME280;62150;43.582;1.456;2023-11-19T14:51:03;100648.69;;;19.92;100.00
73821;BME280;62150;43.582;1.456;2023-11-19T14:53:30;100648.56;;;20.06;100.00
73821;BME280;62150;43.582;1.456;2023-11-19T14:55:59;100648.94;;;20.13;100.00
73821;BME280;62150;43.582;1.456;2023-11-19T14:58:27;100648.69;;;19.92;100.00
73821;BME280;62150;43.582;1.456;2023-11-19T15:00:54;100648.91;;;19.77;100.00
73821;BME280;62150;43.582;1.456;2023-11-19T15:03:22;100639.25;;;19.66;100.00
73821;BME280;62150;43.582;1.456;2023-11-19T15:05:49;100638.41;;;20.15;100.00
73821;BME280;62150;43.582;1.456;2023-11-19T15:08:18;100646.41;;;19.88;100.00
73821;BME280;62150;43.582;1.456;2023-11-19T15:10:45;100644.09;;;19.83;100.00
73821;BME280;62150;43.582;1.456;2023-11-19T15:13:14;100638.16;;;19.81;100.00
73821;BME280;62150;43.582;1.456;2023-11-19T15:15:42;100644.84;;;20.22;100.00
73821;BME280;62150;43.582;1.456;2023-11-19T15:18:09;100644.91;;;20.09;100.00
73821;BME280;62150;43.582;1.456;2023-11-19T15:20:37;100638.25;;;20.05;100.00
73821;BME280;62150;43.582;1.456;2023-11-19T15:23:04;100637.72;;;20.36;100.00
73821;BME280;62150;43.582;1.456;2023-11-19T15:25:34;100647.34;;;20.23;100.00
73821;BME280;62150;43.582;1.456;2023-11-19T15:28:03;100645.66;;;20.35;100.00
73821;BME280;62150;43.582;1.456;2023-11-19T15:30:31;100642.16;;;20.11;100.00
73821;BME280;62150;43.582;1.456;2023-11-19T15:32:59;100643.69;;;19.77;100.00
73821;BME280;62150;43.582;1.456;2023-11-19T15:35:27;100647.25;;;19.63;100.00
73821;BME280;62150;43.582;1.456;2023-11-19T15:37:54;100646.84;;;19.56;100.00
73821;BME280;62150;43.582;1.456;2023-11-19T15:40:22;100647.31;;;19.49;100.00
73821;BME280;62150;43.582;1.456;2023-11-19T15:42:50;100639.75;;;19.58;100.00
73821;BME280;62150;43.582;1.456;2023-11-19T15:45:20;100640.97;;;19.27;100.00
73821;BME280;62150;43.582;1.456;2023-11-19T15:47:49;100638.47;;;19.26;100.00
73821;BME280;62150;43.582;1.456;2023-11-19T15:50:17;100640.31;;;19.11;100.00
73821;BME280;62150;43.582;1.456;2023-11-19T15:52:45;100642.00;;;19.12;100.00
73821;BME280;62150;43.582;1.456;2023-11-19T15:55:12;100637.50;;;19.14;100.00
73821;BME280;62150;43.582;1.456;2023-11-19T15:57:40;100640.97;;;19.27;100.00
73821;BME280;62150;43.582;1.456;2023-11-19T16:00:08;100635.56;;;19.30;100.00
73821;BME280;62150;43.582;1.456;2023-11-19T16:02:37;100634.41;;;19.34;100.00
73821;BME280;62150;43.582;1.456;2023-11-19T16:05:06;100640.56;;;19.33;100.00
73821;BME280;62150;43.582;1.456;2023-11-19T16:07:35;100640.13;;;19.27;100.00
73821;BME280;62150;43.582;1.456;2023-11-19T16:10:03;100645.97;;;19.18;100.00
73821;BME280;62150;43.582;1.456;2023-11-19T16:12:31;100640.84;;;19.16;100.00
73821;BME280;62150;43.582;1.456;2023-11-19T16:14:58;100648.09;;;18.86;100.00
73821;BME280;62150;43.582;1.456;2023-11-19T16:17:26;100645.81;;;19.06;100.00
73821;BME280;62150;43.582;1.456;2023-11-19T16:19:55;100639.97;;;18.90;100.00
73821;BME280;62150;43.582;1.456;2023-11-19T16:22:24;100643.19;;;18.81;100.00
73821;BME280;62150;43.582;1.456;2023-11-19T16:24:52;100643.19;;;18.81;100.00
73821;BME280;62150;43.582;1.456;2023-11-19T16:27:20;100647.53;;;18.68;100.00
73821;BME280;62150;43.582;1.456;2023-11-19T16:29:48;100648.56;;;18.65;100.00
73821;BME280;62150;43.582;1.456;2023-11-19T16:32:16;100647.91;;;18.48;100.00
73821;BME280;62150;43.582;1.456;2023-11-19T16:34:43;100647.47;;;18.41;100.00
73821;BME280;62150;43.582;1.456;2023-11-19T16:37:13;100646.53;;;18.42;100.00
73821;BME280;62150;43.582;1.456;2023-11-19T16:39:43;100645.47;;;18.32;100.00
73821;BME280;62150;43.582;1.456;2023-11-19T16:42:10;100643.81;;;18.31;100.00
73821;BME280;62150;43.582;1.456;2023-11-19T16:44:39;100642.28;;;18.41;100.00
73821;BME280;62150;43.582;1.456;2023-11-19T16:47:07;100641.25;;;18.43;100.00
73821;BME280;62150;43.582;1.456;2023-11-19T16:49:34;100640.50;;;18.41;100.00
73821;BME280;62150;43.582;1.456;2023-11-19T16:52:10;100644.81;;;18.28;100.00
73821;BME280;62150;43.582;1.456;2023-11-19T16:54:39;100640.38;;;18.16;100.00
73821;BME280;62150;43.582;1.456;2023-11-19T16:57:08;100641.22;;;18.17;100.00
73821;BME280;62150;43.582;1.456;2023-11-19T16:59:38;100644.38;;;18.07;100.00
73821;BME280;62150;43.582;1.456;2023-11-19T17:02:05;100647.00;;;18.07;100.00
73821;BME280;62150;43.582;1.456;2023-11-19T17:04:33;100652.47;;;18.03;100.00
73821;BME280;62150;43.582;1.456;2023-11-19T17:07:00;100653.91;;;17.94;100.00
73821;BME280;62150;43.582;1.456;2023-11-19T17:09:28;100657.69;;;17.89;100.00
73821;BME280;62150;43.582;1.456;2023-11-19T17:11:55;100664.63;;;18.02;100.00
73821;BME280;62150;43.582;1.456;2023-11-19T17:14:24;100660.03;;;17.93;100.00
73821;BME280;62150;43.582;1.456;2023-11-19T17:16:52;100664.84;;;17.85;100.00